sensor_id;sensor_type;location;lat;lon;timestamp;pressure;altitude;pressure_sealevel;temperature;humidity
30554;BME280;17335;50.720;7.452;2023-04-16T00:00:41;99607.78;;;7.10;100.00
30554;BME280;17335;50.720;7.452;2023-04-16T00:03:08;99600.66;;;7.10;100.00
30554;BME280;17335;50.720;7.452;2023-04-16T00:05:35;99607.94;;;7.08;100.00
30554;BME280;17335;50.720;7.452;2023-04-16T00:08:02;99606.44;;;7.04;100.00
30554;BME280;17335;50.720;7.452;2023-04-16T00:10:28;99608.03;;;7.07;100.00
30554;BME280;17335;50.720;7.452;2023-04-16T00:12:54;99614.72;;;7.12;100.00
30554;BME280;17335;50.720;7.452;2023-04-16T00:15:21;99622.00;;;7.10;100.00
30554;BME280;17335;50.720;7.452;2023-04-16T00:17:47;99621.38;;;7.07;100.00
30554;BME280;17335;50.720;7.452;2023-04-16T00:20:14;99626.47;;;7.10;100.00
30554;BME280;17335;50.720;7.452;2023-04-16T00:22:40;99629.28;;;7.08;100.00
30554;BME280;17335;50.720;7.452;2023-04-16T00:25:07;99628.63;;;7.05;100.00
30554;BME280;17335;50.720;7.452;2023-04-16T00:27:33;99622.81;;;7.00;100.00
30554;BME280;17335;50.720;7.452;2023-04-16T00:30:00;99627.50;;;6.96;100.00
30554;BME280;17335;50.720;7.452;2023-04-16T00:32:27;99622.31;;;6.94;100.00
30554;BME280;17335;50.720;7.452;2023-04-16T00:34:53;99625.81;;;6.95;100.00
30554;BME280;17335;50.720;7.452;2023-04-16T00:37:20;99622.16;;;6.96;100.00
30554;BME280;17335;50.720;7.452;2023-04-16T00:39:46;99625.59;;;6.98;100.00
30554;BME280;17335;50.720;7.452;2023-04-16T00:42:13;99623.16;;;6.95;100.00
30554;BME280;17335;50.720;7.452;2023-04-16T00:44:39;99622.31;;;6.94;100.00
30554;BME280;17335;50.720;7.452;2023-04-16T00:47:06;99626.78;;;6.94;100.00
30554;BME280;17335;50.720;7.452;2023-04-16T00:49:33;99631.97;;;6.84;100.00
30554;BME280;17335;50.720;7.452;2023-04-16T00:52:01;99629.66;;;6.91;100.00
30554;BME280;17335;50.720;7.452;2023-04-16T00:54:29;99631.16;;;6.95;100.00
30554;BME280;17335;50.720;7.452;2023-04-16T00:56:57;99629.06;;;6.87;100.00
30554;BME280;17335;50.720;7.452;2023-04-16T00:59:25;99636.44;;;6.84;100.00
30554;BME280;17335;50.720;7.452;2023-04-16T01:01:52;99639.72;;;6.87;100.00
30554;BME280;17335;50.720;7.452;2023-04-16T01:04:18;99629.44;;;6.94;100.00
30554;BME280;17335;50.720;7.452;2023-04-16T01:06:45;99635.38;;;6.86;100.00
30554;BME280;17335;50.720;7.452;2023-04-16T01:09:12;99640.34;;;6.91;100.00
30554;BME280;17335;50.720;7.452;2023-04-16T01:11:39;99644.19;;;7.00;100.00
30554;BME280;17335;50.720;7.452;2023-04-16T01:14:05;99638.44;;;6.93;100.00
30554;BME280;17335;50.720;7.452;2023-04-16T01:16:32;99638.66;;;6.90;100.00
30554;BME280;17335;50.720;7.452;2023-04-16T01:18:58;99644.72;;;6.92;100.00
30554;BME280;17335;50.720;7.452;2023-04-16T01:21:25;99651.28;;;6.88;100.00
30554;BME280;17335;50.720;7.452;2023-04-16T01:23:52;99653.06;;;6.87;100.00
30554;BME280;17335;50.720;7.452;2023-04-16T01:26:19;99650.06;;;6.92;100.00
30554;BME280;17335;50.720;7.452;2023-04-16T01:28:45;99648.94;;;6.83;100.00
30554;BME280;17335;50.720;7.452;2023-04-16T01:31:12;99650.75;;;6.83;100.00
30554;BME280;17335;50.720;7.452;2023-04-16T01:33:38;99650.28;;;6.89;100.00
30554;BME280;17335;50.720;7.452;2023-04-16T01:36:05;99654.78;;;6.88;100.00
30554;BME280;17335;50.720;7.452;2023-04-16T01:38:31;99665.06;;;6.82;100.00
30554;BME280;17335;50.720;7.452;2023-04-16T01:40:58;99653.53;;;6.81;100.00
30554;BME280;17335;50.720;7.452;2023-04-16T01:43:25;99667.84;;;6.80;100.00
30554;BME280;17335;50.720;7.452;2023-04-16T01:46:43;99660.69;;;6.81;100.00
30554;BME280;17335;50.720;7.452;2023-04-16T01:48:45;99660.91;;;6.78;100.00
30554;BME280;17335;50.720;7.452;2023-04-16T01:51:12;99667.94;;;6.79;100.00
30554;BME280;17335;50.720;7.452;2023-04-16T01:53:38;99664.00;;;6.84;100.00
30554;BME280;17335;50.720;7.452;2023-04-16T01:56:05;99666.78;;;6.83;100.00
30554;BME280;17335;50.720;7.452;2023-04-16T01:58:32;99666.78;;;6.83;100.00
30554;BME280;17335;50.720;7.452;2023-04-16T02:00:59;99665.56;;;6.87;100.00
30554;BME280;17335;50.720;7.452;2023-04-16T02:03:26;99670.41;;;6.82;100.00
30554;BME280;17335;50.720;7.452;2023-04-16T02:05:53;99665.06;;;6.82;100.00
30554;BME280;17335;50.720;7.452;2023-04-16T02:08:19;99663.22;;;6.82;100.00
30554;BME280;17335;50.720;7.452;2023-04-16T02:10:48;99668.69;;;6.81;100.00
30554;BME280;17335;50.720;7.452;2023-04-16T02:13:15;99664.63;;;6.88;100.00
30554;BME280;17335;50.720;7.452;2023-04-16T02:15:46;99656.44;;;6.78;100.00
30554;BME280;17335;50.720;7.452;2023-04-16T02:18:13;99654.78;;;6.88;100.00
30554;BME280;17335;50.720;7.452;2023-04-16T02:20:44;99657.69;;;6.85;100.00
30554;BME280;17335;50.720;7.452;2023-04-16T02:23:11;99654.47;;;6.93;100.00
30554;BME280;17335;50.720;7.452;2023-04-16T02:25:41;99662.47;;;6.93;100.00
30554;BME280;17335;50.720;7.452;2023-04-16T02:28:10;99666.66;;;6.84;100.00
30554;BME280;17335;50.720;7.452;2023-04-16T02:30:38;99662.34;;;6.94;100.00
30554;BME280;17335;50.720;7.452;2023-04-16T02:33:06;99667.50;;;6.85;100.00
30554;BME280;17335;50.720;7.452;2023-04-16T02:35:33;99663.41;;;6.92;100.00
30554;BME280;17335;50.720;7.452;2023-04-16T02:38:01;99664.16;;;6.94;100.00
30554;BME280;17335;50.720;7.452;2023-04-16T02:40:29;99664.38;;;6.91;100.00
30554;BME280;17335;50.720;7.452;2023-04-16T02:42:56;99664.38;;;6.91;100.00
30554;BME280;17335;50.720;7.452;2023-04-16T02:45:23;99664.50;;;6.89;100.00
30554;BME280;17335;50.720;7.452;2023-04-16T02:47:50;99661.47;;;6.94;100.00
30554;BME280;17335;50.720;7.452;2023-04-16T02:50:17;99660.97;;;6.89;100.00
30554;BME280;17335;50.720;7.452;2023-04-16T02:52:43;99663.34;;;6.81;100.00
30554;BME280;17335;50.720;7.452;2023-04-16T02:55:10;99661.19;;;6.86;100.00
30554;BME280;17335;50.720;7.452;2023-04-16T02:57:37;99660.44;;;6.84;100.00
30554;BME280;17335;50.720;7.452;2023-04-16T03:00:03;99666.53;;;6.86;100.00
30554;BME280;17335;50.720;7.452;2023-04-16T03:02:30;99662.69;;;6.90;100.00
30554;BME280;17335;50.720;7.452;2023-04-16T03:04:57;99671.63;;;6.89;100.00
30554;BME280;17335;50.720;7.452;2023-04-16T03:07:23;99666.53;;;6.86;100.00
30554;BME280;17335;50.720;7.452;2023-04-16T03:09:50;99666.31;;;6.89;100.00
30554;BME280;17335;50.720;7.452;2023-04-16T03:12:16;99671.41;;;6.92;100.00
30554;BME280;17335;50.720;7.452;2023-04-16T03:14:43;99666.53;;;6.86;100.00
30554;BME280;17335;50.720;7.452;2023-04-16T03:17:10;99665.34;;;6.90;100.00
30554;BME280;17335;50.720;7.452;2023-04-16T03:19:37;99664.63;;;6.88;100.00
30554;BME280;17335;50.720;7.452;2023-04-16T03:22:04;99667.03;;;6.91;100.00
30554;BME280;17335;50.720;7.452;2023-04-16T03:24:30;99663.09;;;6.97;100.00
30554;BME280;17335;50.720;7.452;2023-04-16T03:26:57;99662.47;;;6.93;100.00
30554;BME280;17335;50.720;7.452;2023-04-16T03:29:24;99663.94;;;6.97;100.00
30554;BME280;17335;50.720;7.452;2023-04-16T03:31:52;99661.47;;;6.94;100.00
30554;BME280;17335;50.720;7.452;2023-04-16T03:34:18;99660.97;;;6.89;100.00
30554;BME280;17335;50.720;7.452;2023-04-16T03:36:45;99668.66;;;6.93;100.00
30554;BME280;17335;50.720;7.452;2023-04-16T03:39:11;99669.47;;;6.94;100.00
30554;BME280;17335;50.720;7.452;2023-04-16T03:41:38;99672.63;;;6.88;100.00
30554;BME280;17335;50.720;7.452;2023-04-16T03:44:04;99665.25;;;6.91;100.00
30554;BME280;17335;50.720;7.452;2023-04-16T03:46:31;99670.81;;;6.88;100.00
30554;BME280;17335;50.720;7.452;2023-04-16T03:48:58;99670.56;;;6.91;100.00
30554;BME280;17335;50.720;7.452;2023-04-16T03:51:24;99672.22;;;7.05;100.00
30554;BME280;17335;50.720;7.452;2023-04-16T03:53:52;99670.56;;;6.91;100.00
30554;BME280;17335;50.720;7.452;2023-04-16T03:56:18;99670.22;;;6.96;100.00
30554;BME280;17335;50.720;7.452;2023-04-16T03:58:45;99674.31;;;6.89;100.00
30554;BME280;17335;50.720;7.452;2023-04-16T04:01:11;99681.47;;;6.88;100.00
30554;BME280;17335;50.720;7.452;2023-04-16T04:03:38;99679.94;;;6.97;100.00
30554;BME280;17335;50.720;7.452;2023-04-16T04:06:08;99680.78;;;6.98;100.00
30554;BME280;17335;50.720;7.452;2023-04-16T04:08:35;99680.38;;;6.91;100.00
30554;BME280;17335;50.720;7.452;2023-04-16T04:11:02;99682.72;;;6.95;100.00
30554;BME280;17335;50.720;7.452;2023-04-16T04:13:29;99683.81;;;6.93;100.00
30554;BME280;17335;50.720;7.452;2023-04-16T04:15:55;99690.63;;;6.97;100.00
30554;BME280;17335;50.720;7.452;2023-04-16T04:18:22;99698.84;;;6.94;100.00
30554;BME280;17335;50.720;7.452;2023-04-16T04:20:48;99695.13;;;6.97;100.00
30554;BME280;17335;50.720;7.452;2023-04-16T04:23:15;99697.06;;;6.94;100.00
30554;BME280;17335;50.720;7.452;2023-04-16T04:25:43;99704.06;;;6.95;100.00
30554;BME280;17335;50.720;7.452;2023-04-16T04:28:09;99695.00;;;6.98;100.00
30554;BME280;17335;50.720;7.452;2023-04-16T04:30:36;99705.38;;;6.90;100.00
30554;BME280;17335;50.720;7.452;2023-04-16T04:33:02;99697.47;;;6.88;100.00
30554;BME280;17335;50.720;7.452;2023-04-16T04:35:29;99705.91;;;6.95;100.00
30554;BME280;17335;50.720;7.452;2023-04-16T04:37:55;99707.22;;;6.89;100.00
30554;BME280;17335;50.720;7.452;2023-04-16T04:40:22;99708.69;;;6.93;100.00
30554;BME280;17335;50.720;7.452;2023-04-16T04:42:48;99721.50;;;6.88;100.00
30554;BME280;17335;50.720;7.452;2023-04-16T04:45:15;99721.50;;;6.88;100.00
30554;BME280;17335;50.720;7.452;2023-04-16T04:47:42;99717.75;;;6.91;100.00
30554;BME280;17335;50.720;7.452;2023-04-16T04:50:09;99715.22;;;6.89;100.00
30554;BME280;17335;50.720;7.452;2023-04-16T04:52:35;99718.00;;;6.88;100.00
30554;BME280;17335;50.720;7.452;2023-04-16T04:55:02;99709.00;;;6.89;100.00
30554;BME280;17335;50.720;7.452;2023-04-16T04:57:29;99711.56;;;6.90;100.00
30554;BME280;17335;50.720;7.452;2023-04-16T04:59:55;99706.00;;;6.93;100.00
30554;BME280;17335;50.720;7.452;2023-04-16T05:02:21;99707.06;;;6.91;100.00
30554;BME280;17335;50.720;7.452;2023-04-16T05:04:48;99714.63;;;6.97;100.00
30554;BME280;17335;50.720;7.452;2023-04-16T05:07:15;99705.78;;;6.97;100.00
30554;BME280;17335;50.720;7.452;2023-04-16T05:09:41;99702.38;;;6.94;100.00
30554;BME280;17335;50.720;7.452;2023-04-16T05:12:08;99708.09;;;7.01;100.00
30554;BME280;17335;50.720;7.452;2023-04-16T05:14:35;99716.25;;;7.00;100.00
30554;BME280;17335;50.720;7.452;2023-04-16T05:17:01;99712.81;;;6.98;100.00
30554;BME280;17335;50.720;7.452;2023-04-16T05:19:28;99711.97;;;6.97;100.00
30554;BME280;17335;50.720;7.452;2023-04-16T05:21:55;99720.72;;;6.99;100.00
30554;BME280;17335;50.720;7.452;2023-04-16T05:24:21;99722.22;;;7.03;100.00
30554;BME280;17335;50.720;7.452;2023-04-16T05:26:48;99725.09;;;7.00;100.00
30554;BME280;17335;50.720;7.452;2023-04-16T05:29:14;99726.91;;;7.00;100.00
30554;BME280;17335;50.720;7.452;2023-04-16T05:31:41;99724.25;;;7.00;100.00
30554;BME280;17335;50.720;7.452;2023-04-16T05:34:08;99717.50;;;7.07;100.00
30554;BME280;17335;50.720;7.452;2023-04-16T05:36:34;99722.84;;;7.07;100.00
30554;BME280;17335;50.720;7.452;2023-04-16T05:39:01;99717.25;;;7.10;100.00
30554;BME280;17335;50.720;7.452;2023-04-16T05:41:27;99727.69;;;7.13;100.00
30554;BME280;17335;50.720;7.452;2023-04-16T05:43:53;99729.63;;;7.11;100.00
30554;BME280;17335;50.720;7.452;2023-04-16T05:46:20;99746.75;;;7.08;100.00
30554;BME280;17335;50.720;7.452;2023-04-16T05:48:46;99748.84;;;7.16;100.00
30554;BME280;17335;50.720;7.452;2023-04-16T05:51:13;99751.41;;;7.18;100.00
30554;BME280;17335;50.720;7.452;2023-04-16T05:53:39;99756.22;;;7.12;100.00
30554;BME280;17335;50.720;7.452;2023-04-16T05:56:07;99766.97;;;7.24;100.00
30554;BME280;17335;50.720;7.452;2023-04-16T05:58:34;99777.88;;;7.21;100.00
30554;BME280;17335;50.720;7.452;2023-04-16T06:01:00;99769.78;;;7.09;100.00
30554;BME280;17335;50.720;7.452;2023-04-16T06:03:26;99777.38;;;7.16;100.00
30554;BME280;17335;50.720;7.452;2023-04-16T06:05:53;99771.50;;;7.10;100.00
30554;BME280;17335;50.720;7.452;2023-04-16T06:08:19;99764.22;;;7.12;100.00
30554;BME280;17335;50.720;7.452;2023-04-16T06:10:46;99764.00;;;7.16;100.00
30554;BME280;17335;50.720;7.452;2023-04-16T06:13:12;99760.47;;;7.15;100.00
30554;BME280;17335;50.720;7.452;2023-04-16T06:15:39;99764.97;;;7.14;100.00
30554;BME280;17335;50.720;7.452;2023-04-16T06:18:06;99767.19;;;7.21;100.00
30554;BME280;17335;50.720;7.452;2023-04-16T06:20:32;99770.81;;;7.20;100.00
30554;BME280;17335;50.720;7.452;2023-04-16T06:22:58;99767.81;;;7.24;100.00
30554;BME280;17335;50.720;7.452;2023-04-16T06:25:25;99770.72;;;7.21;100.00
30554;BME280;17335;50.720;7.452;2023-04-16T06:27:51;99769.41;;;7.27;100.00
30554;BME280;17335;50.720;7.452;2023-04-16T06:30:18;99772.31;;;7.24;100.00
30554;BME280;17335;50.720;7.452;2023-04-16T06:32:45;99765.47;;;7.20;100.00
30554;BME280;17335;50.720;7.452;2023-04-16T06:35:12;99776.69;;;7.25;100.00
30554;BME280;17335;50.720;7.452;2023-04-16T06:37:39;99780.59;;;7.32;100.00
30554;BME280;17335;50.720;7.452;2023-04-16T06:40:06;99779.75;;;7.31;100.00
30554;BME280;17335;50.720;7.452;2023-04-16T06:42:32;99773.56;;;7.31;100.00
30554;BME280;17335;50.720;7.452;2023-04-16T06:44:59;99780.59;;;7.32;100.00
30554;BME280;17335;50.720;7.452;2023-04-16T06:47:25;99787.75;;;7.31;100.00
30554;BME280;17335;50.720;7.452;2023-04-16T06:49:52;99781.47;;;7.32;100.00
30554;BME280;17335;50.720;7.452;2023-04-16T06:52:18;99781.88;;;7.39;100.00
30554;BME280;17335;50.720;7.452;2023-04-16T06:54:45;99788.38;;;7.35;100.00
30554;BME280;17335;50.720;7.452;2023-04-16T06:57:11;99788.91;;;7.40;100.00
30554;BME280;17335;50.720;7.452;2023-04-16T06:59:38;99783.56;;;7.40;100.00
30554;BME280;17335;50.720;7.452;2023-04-16T07:02:04;99787.22;;;7.39;100.00
30554;BME280;17335;50.720;7.452;2023-04-16T07:04:31;99783.78;;;7.37;100.00
30554;BME280;17335;50.720;7.452;2023-04-16T07:06:58;99786.34;;;7.39;100.00
30554;BME280;17335;50.720;7.452;2023-04-16T07:09:24;99793.50;;;7.38;100.00
30554;BME280;17335;50.720;7.452;2023-04-16T07:11:53;99786.75;;;7.45;100.00
30554;BME280;17335;50.720;7.452;2023-04-16T07:14:19;99786.13;;;7.42;100.00
30554;BME280;17335;50.720;7.452;2023-04-16T07:16:46;99791.78;;;7.37;100.00
30554;BME280;17335;50.720;7.452;2023-04-16T07:19:12;99802.25;;;7.40;100.00
30554;BME280;17335;50.720;7.452;2023-04-16T07:21:38;99795.97;;;7.41;100.00
30554;BME280;17335;50.720;7.452;2023-04-16T07:24:07;99795.22;;;7.39;100.00
30554;BME280;17335;50.720;7.452;2023-04-16T07:26:33;99789.53;;;7.44;100.00
30554;BME280;17335;50.720;7.452;2023-04-16T07:29:00;99794.97;;;7.42;100.00
30554;BME280;17335;50.720;7.452;2023-04-16T07:31:26;99788.69;;;7.43;100.00
30554;BME280;17335;50.720;7.452;2023-04-16T07:33:53;99783.50;;;7.53;100.00
30554;BME280;17335;50.720;7.452;2023-04-16T07:36:19;99791.03;;;7.48;100.00
30554;BME280;17335;50.720;7.452;2023-04-16T07:38:46;99800.28;;;7.55;100.00
30554;BME280;17335;50.720;7.452;2023-04-16T07:41:12;99812.31;;;7.61;100.00
30554;BME280;17335;50.720;7.452;2023-04-16T07:43:39;99808.28;;;7.55;100.00
30554;BME280;17335;50.720;7.452;2023-04-16T07:46:05;99808.19;;;7.57;100.00
30554;BME280;17335;50.720;7.452;2023-04-16T07:48:32;99810.09;;;7.55;100.00
30554;BME280;17335;50.720;7.452;2023-04-16T07:50:58;99811.06;;;7.54;100.00
30554;BME280;17335;50.720;7.452;2023-04-16T07:53:25;99805.91;;;7.63;100.00
30554;BME280;17335;50.720;7.452;2023-04-16T07:55:51;99799.47;;;7.66;100.00
30554;BME280;17335;50.720;7.452;2023-04-16T07:58:18;99817.22;;;7.67;100.00
30554;BME280;17335;50.720;7.452;2023-04-16T08:00:44;99816.00;;;7.71;100.00
30554;BME280;17335;50.720;7.452;2023-04-16T08:03:11;99809.09;;;7.68;100.00
30554;BME280;17335;50.720;7.452;2023-04-16T08:05:38;99819.69;;;7.81;100.00
30554;BME280;17335;50.720;7.452;2023-04-16T08:08:04;99815.44;;;7.79;100.00
30554;BME280;17335;50.720;7.452;2023-04-16T08:10:32;99807.06;;;7.83;100.00
30554;BME280;17335;50.720;7.452;2023-04-16T08:13:01;99819.34;;;7.86;100.00
30554;BME280;17335;50.720;7.452;2023-04-16T08:15:28;99814.13;;;7.84;100.00
30554;BME280;17335;50.720;7.452;2023-04-16T08:17:55;99821.41;;;7.82;100.00
30554;BME280;17335;50.720;7.452;2023-04-16T08:20:21;99826.97;;;7.79;100.00
30554;BME280;17335;50.720;7.452;2023-04-16T08:22:48;99830.72;;;7.77;100.00
30554;BME280;17335;50.720;7.452;2023-04-16T08:25:14;99828.44;;;7.83;100.00
30554;BME280;17335;50.720;7.452;2023-04-16T08:27:41;99835.41;;;7.86;100.00
30554;BME280;17335;50.720;7.452;2023-04-16T08:30:07;99840.16;;;7.94;100.00
30554;BME280;17335;50.720;7.452;2023-04-16T08:32:34;99839.94;;;7.97;100.00
30554;BME280;17335;50.720;7.452;2023-04-16T08:35:00;99839.81;;;7.98;100.00
30554;BME280;17335;50.720;7.452;2023-04-16T08:37:27;99838.81;;;7.99;100.00
30554;BME280;17335;50.720;7.452;2023-04-16T08:39:53;99848.22;;;8.05;100.00
30554;BME280;17335;50.720;7.452;2023-04-16T08:42:31;99848.22;;;8.05;100.00
30554;BME280;17335;50.720;7.452;2023-04-16T08:45:12;99855.00;;;7.98;100.00
30554;BME280;17335;50.720;7.452;2023-04-16T08:47:44;99853.81;;;8.02;100.00
30554;BME280;17335;50.720;7.452;2023-04-16T08:50:16;99864.50;;;8.02;100.00
30554;BME280;17335;50.720;7.452;2023-04-16T08:52:55;99860.47;;;7.96;100.00
30554;BME280;17335;50.720;7.452;2023-04-16T08:55:37;99858.53;;;7.98;100.00
30554;BME280;17335;50.720;7.452;2023-04-16T08:58:12;99864.28;;;8.05;100.00
30554;BME280;17335;50.720;7.452;2023-04-16T09:00:39;99872.41;;;8.03;100.00
30554;BME280;17335;50.720;7.452;2023-04-16T09:03:08;99863.56;;;8.14;100.00
30554;BME280;17335;50.720;7.452;2023-04-16T09:05:38;99868.53;;;8.07;100.00
30554;BME280;17335;50.720;7.452;2023-04-16T09:08:05;99868.28;;;8.11;100.00
30554;BME280;17335;50.720;7.452;2023-04-16T09:10:33;99870.25;;;8.08;100.00
30554;BME280;17335;50.720;7.452;2023-04-16T09:13:00;99869.53;;;8.18;100.00
30554;BME280;17335;50.720;7.452;2023-04-16T09:15:26;99870.41;;;8.18;100.00
30554;BME280;17335;50.720;7.452;2023-04-16T09:17:53;99873.31;;;8.26;100.00
30554;BME280;17335;50.720;7.452;2023-04-16T09:20:19;99864.63;;;8.36;100.00
30554;BME280;17335;50.720;7.452;2023-04-16T09:22:46;99867.03;;;8.39;100.00
30554;BME280;17335;50.720;7.452;2023-04-16T09:25:13;99869.38;;;8.43;100.00
30554;BME280;17335;50.720;7.452;2023-04-16T09:27:41;99870.88;;;8.48;100.00
30554;BME280;17335;50.720;7.452;2023-04-16T09:30:24;99865.75;;;8.56;100.00
30554;BME280;17335;50.720;7.452;2023-04-16T09:33:11;99869.31;;;8.56;100.00
30554;BME280;17335;50.720;7.452;2023-04-16T09:35:47;99872.69;;;8.47;100.00
30554;BME280;17335;50.720;7.452;2023-04-16T09:38:14;99873.06;;;8.54;100.00
30554;BME280;17335;50.720;7.452;2023-04-16T09:40:41;99867.13;;;8.61;100.00
30554;BME280;17335;50.720;7.452;2023-04-16T09:43:15;99876.84;;;8.62;100.00
30554;BME280;17335;50.720;7.452;2023-04-16T09:45:49;99875.38;;;8.70;100.00
30554;BME280;17335;50.720;7.452;2023-04-16T09:48:29;99872.38;;;8.74;100.00
30554;BME280;17335;50.720;7.452;2023-04-16T09:50:57;99880.50;;;8.73;100.00
30554;BME280;17335;50.720;7.452;2023-04-16T09:53:29;99873.81;;;8.78;100.00
30554;BME280;17335;50.720;7.452;2023-04-16T09:55:57;99871.63;;;8.83;100.00
30554;BME280;17335;50.720;7.452;2023-04-16T09:58:24;99871.03;;;8.91;100.00
30554;BME280;17335;50.720;7.452;2023-04-16T10:01:01;99871.75;;;8.93;100.00
30554;BME280;17335;50.720;7.452;2023-04-16T10:03:29;99876.66;;;8.99;100.00
30554;BME280;17335;50.720;7.452;2023-04-16T10:06:06;99883.31;;;8.94;100.00
30554;BME280;17335;50.720;7.452;2023-04-16T10:08:33;99884.31;;;8.93;100.00
30554;BME280;17335;50.720;7.452;2023-04-16T10:10:59;99889.78;;;8.91;100.00
30554;BME280;17335;50.720;7.452;2023-04-16T10:13:26;99890.16;;;8.98;100.00
30554;BME280;17335;50.720;7.452;2023-04-16T10:15:56;99893.31;;;9.03;100.00
30554;BME280;17335;50.720;7.452;2023-04-16T10:18:23;99893.94;;;9.07;100.00
30554;BME280;17335;50.720;7.452;2023-04-16T10:20:50;99887.34;;;9.11;100.00
30554;BME280;17335;50.720;7.452;2023-04-16T10:23:18;99888.94;;;9.02;100.00
30554;BME280;17335;50.720;7.452;2023-04-16T10:25:47;99882.09;;;9.09;100.00
30554;BME280;17335;50.720;7.452;2023-04-16T10:28:15;99879.06;;;9.25;100.00
30554;BME280;17335;50.720;7.452;2023-04-16T10:30:47;99889.75;;;9.36;100.00
30554;BME280;17335;50.720;7.452;2023-04-16T10:33:22;99884.41;;;9.48;100.00
30554;BME280;17335;50.720;7.452;2023-04-16T10:35:49;99879.28;;;9.45;100.00
30554;BME280;17335;50.720;7.452;2023-04-16T10:38:32;99885.88;;;9.41;100.00
30554;BME280;17335;50.720;7.452;2023-04-16T10:41:03;99884.41;;;9.48;100.00
30554;BME280;17335;50.720;7.452;2023-04-16T10:43:31;99887.44;;;9.54;100.00
30554;BME280;17335;50.720;7.452;2023-04-16T10:46:20;99890.34;;;9.63;100.00
30554;BME280;17335;50.720;7.452;2023-04-16T10:48:49;99883.38;;;9.71;100.00
30554;BME280;17335;50.720;7.452;2023-04-16T10:51:36;99887.97;;;9.81;100.00
30554;BME280;17335;50.720;7.452;2023-04-16T10:54:04;99873.53;;;9.93;100.00
30554;BME280;17335;50.720;7.452;2023-04-16T10:56:46;99879.22;;;10.11;100.00
30554;BME280;17335;50.720;7.452;2023-04-16T10:59:16;99880.75;;;10.25;100.00
30554;BME280;17335;50.720;7.452;2023-04-16T11:01:45;99875.59;;;10.33;100.00
30554;BME280;17335;50.720;7.452;2023-04-16T11:10:04;99868.63;;;10.09;100.00
30554;BME280;17335;50.720;7.452;2023-04-16T11:12:34;99870.38;;;9.99;100.00
30554;BME280;17335;50.720;7.452;2023-04-16T11:15:15;99872.47;;;9.84;100.00
30554;BME280;17335;50.720;7.452;2023-04-16T11:17:43;99872.91;;;9.68;100.00
30554;BME280;17335;50.720;7.452;2023-04-16T11:20:22;99870.47;;;9.65;100.00
30554;BME280;17335;50.720;7.452;2023-04-16T11:22:50;99874.47;;;9.71;100.00
30554;BME280;17335;50.720;7.452;2023-04-16T11:25:22;99883.63;;;9.68;100.00
30554;BME280;17335;50.720;7.452;2023-04-16T11:27:50;99870.22;;;9.68;100.00
30554;BME280;17335;50.720;7.452;2023-04-16T11:30:27;99879.47;;;9.75;100.00
30554;BME280;17335;50.720;7.452;2023-04-16T11:32:54;99871.63;;;9.84;100.00
30554;BME280;17335;50.720;7.452;2023-04-16T11:35:21;99882.31;;;9.95;100.00
30554;BME280;17335;50.720;7.452;2023-04-16T11:37:47;99873.97;;;10.09;100.00
30554;BME280;17335;50.720;7.452;2023-04-16T11:40:14;99877.59;;;10.20;100.00
30554;BME280;17335;50.720;7.452;2023-04-16T11:42:40;99888.59;;;10.17;100.00
30554;BME280;17335;50.720;7.452;2023-04-16T11:45:09;99878.56;;;10.19;100.00
30554;BME280;17335;50.720;7.452;2023-04-16T11:47:46;99884.91;;;10.18;100.00
30554;BME280;17335;50.720;7.452;2023-04-16T11:50:21;99884.13;;;10.27;100.00
30554;BME280;17335;50.720;7.452;2023-04-16T11:52:49;99891.91;;;10.41;100.00
30554;BME280;17335;50.720;7.452;2023-04-16T11:55:16;99884.63;;;10.32;100.00
30554;BME280;17335;50.720;7.452;2023-04-16T11:57:43;99888.16;;;10.32;100.00
30554;BME280;17335;50.720;7.452;2023-04-16T12:00:11;99878.16;;;10.56;100.00
30554;BME280;17335;50.720;7.452;2023-04-16T12:02:49;99870.03;;;10.67;100.00
30554;BME280;17335;50.720;7.452;2023-04-16T12:05:31;99874.78;;;10.84;100.00
30554;BME280;17335;50.720;7.452;2023-04-16T12:08:04;99874.75;;;10.75;100.00
30554;BME280;17335;50.720;7.452;2023-04-16T12:10:35;99871.50;;;10.81;100.00
30554;BME280;17335;50.720;7.452;2023-04-16T12:13:12;99874.63;;;10.76;100.00
30554;BME280;17335;50.720;7.452;2023-04-16T12:15:46;99872.44;;;10.70;100.00
30554;BME280;17335;50.720;7.452;2023-04-16T12:18:27;99877.19;;;10.87;100.00
30554;BME280;17335;50.720;7.452;2023-04-16T12:20:54;99873.88;;;11.05;100.00
30554;BME280;17335;50.720;7.452;2023-04-16T12:23:29;99879.53;;;11.02;100.00
30554;BME280;17335;50.720;7.452;2023-04-16T12:25:56;99877.38;;;10.96;100.00
30554;BME280;17335;50.720;7.452;2023-04-16T12:28:32;99880.34;;;10.93;100.00
30554;BME280;17335;50.720;7.452;2023-04-16T12:31:00;99883.47;;;10.98;100.00
30554;BME280;17335;50.720;7.452;2023-04-16T12:33:27;99882.06;;;10.94;100.00
30554;BME280;17335;50.720;7.452;2023-04-16T12:35:56;99884.88;;;10.92;100.00
30554;BME280;17335;50.720;7.452;2023-04-16T12:38:24;99880.00;;;10.86;100.00
30554;BME280;17335;50.720;7.452;2023-04-16T12:40:51;99882.75;;;10.96;100.00
30554;BME280;17335;50.720;7.452;2023-04-16T12:43:21;99881.53;;;10.79;100.00
30554;BME280;17335;50.720;7.452;2023-04-16T12:45:48;99881.72;;;10.87;100.00
30554;BME280;17335;50.720;7.452;2023-04-16T12:48:14;99883.66;;;11.06;100.00
30554;BME280;17335;50.720;7.452;2023-04-16T12:50:43;99875.66;;;11.16;100.00
30554;BME280;17335;50.720;7.452;2023-04-16T12:53:10;99869.97;;;11.09;100.00
30554;BME280;17335;50.720;7.452;2023-04-16T12:55:37;99861.22;;;11.17;100.00
30554;BME280;17335;50.720;7.452;2023-04-16T12:58:04;99868.88;;;11.21;100.00
30554;BME280;17335;50.720;7.452;2023-04-16T13:00:30;99871.94;;;11.17;100.00
30554;BME280;17335;50.720;7.452;2023-04-16T13:02:57;99868.56;;;11.15;100.00
30554;BME280;17335;50.720;7.452;2023-04-16T13:05:24;99864.91;;;11.16;100.00
30554;BME280;17335;50.720;7.452;2023-04-16T13:07:50;99867.59;;;11.25;100.00
30554;BME280;17335;50.720;7.452;2023-04-16T13:10:20;99863.09;;;11.36;100.00